Time;durP1;ratioP1;P1;durP2;ratioP2;P2;SDS_P1;SDS_P2;PMS_P1;PMS_P2;Temp;Humidity;BMP_temperature;BMP_pressure;BME280_temperature;BME280_humidity;BME280_pressure;Samples;Min_cycle;Max_cycle;Signal;HPM_P1;HPM_P2
2021/08/18 00:00:08;;;;;;;;;;;;;;;13.02;83.46;97128.84;30001;982;1881;-58
2021/08/18 00:00:44;;;;;;;;;;;;;;;13.04;84.02;97126.63;30001;983;1884;-68
2021/08/18 00:01:17;;;;;;;;;;;;;;;13.03;83.87;97131.28;30001;983;1880;-67
2021/08/18 00:01:53;;;;;;;;;;;;;;;13.03;83.93;97125.81;30001;983;1884;-67
2021/08/18 00:02:24;;;;;;;;;;;;;;;13.01;83.60;97124.50;30001;983;1880;-68
2021/08/18 00:02:56;;;;;;;;;;;;;;;13.00;83.66;97120.19;30001;983;1867;-68
2021/08/18 00:03:28;;;;;;;;;;;;;;;13.01;83.49;97121.78;30001;983;1858;-67
2021/08/18 00:04:00;;;;;;;;;;;;;;;13.02;83.24;97118.75;30001;983;1885;-67
2021/08/18 00:04:33;;;;;;;;;;;;;;;13.03;83.18;97120.37;30001;982;1880;-57
2021/08/18 00:05:05;;;;;;;;;;;;;;;13.04;83.07;97121.19;30001;982;1885;-57
2021/08/18 00:05:38;;;;;;;;;;;;;;;13.01;83.55;97117.16;30001;982;1880;-68
2021/08/18 00:06:11;;;;;;;;;;;;;;;13.02;83.46;97123.41;30001;982;1885;-68
2021/08/18 00:06:43;;;;;;;;;;;;;;;13.01;83.65;97119.06;30001;982;1863;-67
2021/08/18 00:07:14;;;;;;;;;;;;;;;13.00;83.63;97120.19;30001;982;1880;-56
2021/08/18 00:07:47;;;;;;;;;;;;;;;13.00;83.51;97115.53;30001;983;1880;-69
2021/08/18 00:08:18;;;;;;;;;;;;;;;13.04;82.82;97116.53;30001;983;1884;-69
2021/08/18 00:08:56;;;;;;;;;;;;;;;13.10;82.50;97119.97;30001;983;1880;-69
2021/08/18 00:09:27;;;;;;;;;;;;;;;13.09;82.55;97118.38;30001;983;1867;-67
2021/08/18 00:09:59;;;;;;;;;;;;;;;13.09;82.85;97123.81;30001;983;1875;-56
2021/08/18 00:10:30;;;;;;;;;;;;;;;13.12;82.82;97117.75;30001;983;1884;-68
2021/08/18 00:11:03;;;;;;;;;;;;;;;13.12;82.44;97117.75;30001;983;1880;-69
2021/08/18 00:11:36;;;;;;;;;;;;;;;13.14;82.41;97120.19;30001;983;1884;-69
2021/08/18 00:12:08;;;;;;;;;;;;;;;13.15;82.18;97122.59;30001;982;1880;-56
2021/08/18 00:12:40;;;;;;;;;;;;;;;13.15;82.42;97113.63;30001;982;1885;-67
2021/08/18 00:13:11;;;;;;;;;;;;;;;13.12;82.56;97117.75;30001;982;1880;-68
2021/08/18 00:13:42;;;;;;;;;;;;;;;13.10;82.72;97109.09;30001;982;1885;-67
2021/08/18 00:14:13;;;;;;;;;;;;;;;13.09;82.76;97108.28;30001;986;1880;-67
2021/08/18 00:14:44;;;;;;;;;;;;;;;13.10;82.56;97109.09;30001;982;1867;-68
2021/08/18 00:15:15;;;;;;;;;;;;;;;13.09;82.46;97112.91;30001;982;1778;-70
2021/08/18 00:15:46;;;;;;;;;;;;;;;13.11;82.49;97110.69;30001;983;1884;-67
2021/08/18 00:16:19;;;;;;;;;;;;;;;13.15;81.86;97111.72;30001;983;1880;-56
2021/08/18 00:16:50;;;;;;;;;;;;;;;13.15;81.82;97116.34;30001;983;1885;-67
2021/08/18 00:17:20;;;;;;;;;;;;;;;13.14;82.04;97107.38;30001;983;1880;-70
2021/08/18 00:17:54;;;;;;;;;;;;;;;13.13;82.28;97119.37;30001;983;1794;-68
2021/08/18 00:18:25;;;;;;;;;;;;;;;13.16;82.31;97120.72;30001;983;1863;-67
2021/08/18 00:18:56;;;;;;;;;;;;;;;13.18;81.97;97110.28;30001;983;1858;-68
2021/08/18 00:19:27;;;;;;;;;;;;;;;13.17;82.01;97114.94;30001;983;1876;-68
2021/08/18 00:19:58;;;;;;;;;;;;;;;13.17;82.29;97116.88;30001;982;1880;-67
2021/08/18 00:20:32;;;;;;;;;;;;;;;13.14;82.57;97115.53;30001;982;1876;-67
2021/08/18 00:21:03;;;;;;;;;;;;;;;13.14;82.51;97114.75;30001;982;1880;-67
2021/08/18 00:21:34;;;;;;;;;;;;;;;13.12;82.47;97115.03;30001;982;1876;-66
2021/08/18 00:22:05;;;;;;;;;;;;;;;13.15;82.30;97117.16;30001;982;1881;-68
2021/08/18 00:22:36;;;;;;;;;;;;;;;13.14;81.96;97114.75;30001;982;1876;-67
2021/08/18 00:23:07;;;;;;;;;;;;;;;13.14;82.44;97115.53;30001;983;1863;-67
2021/08/18 00:23:38;;;;;;;;;;;;;;;13.12;82.49;97112.31;30001;983;1871;-56
2021/08/18 00:24:09;;;;;;;;;;;;;;;13.11;82.78;97113.41;30001;983;1880;-67
2021/08/18 00:24:40;;;;;;;;;;;;;;;13.11;82.79;97121.59;30001;983;1876;-67
2021/08/18 00:25:12;;;;;;;;;;;;;;;13.09;82.77;97119.19;30001;983;1880;-67
2021/08/18 00:25:43;;;;;;;;;;;;;;;13.10;82.67;97119.97;30001;983;1876;-56
2021/08/18 00:26:15;;;;;;;;;;;;;;;13.09;82.75;97112.91;30001;983;1880;-67
2021/08/18 00:26:45;;;;;;;;;;;;;;;13.09;82.59;97112.91;30001;983;1858;-68
2021/08/18 00:27:16;;;;;;;;;;;;;;;13.07;82.67;97110.50;30001;982;1876;-67
2021/08/18 00:27:47;;;;;;;;;;;;;;;13.09;82.69;97112.91;30001;982;1876;-68
2021/08/18 00:28:18;;;;;;;;;;;;;;;13.12;82.55;97112.31;30001;982;1880;-58
2021/08/18 00:28:49;;;;;;;;;;;;;;;13.12;82.75;97117.75;30001;982;1876;-56
2021/08/18 00:29:20;;;;;;;;;;;;;;;13.13;82.46;97116.66;30001;963;1803;-67
2021/08/18 00:29:50;;;;;;;;;;;;;;;13.14;82.21;97112.00;30001;983;1875;-66
2021/08/18 00:30:22;;;;;;;;;;;;;;;13.16;81.94;97113.34;30001;983;1880;-69
2021/08/18 00:30:53;;;;;;;;;;;;;;;13.16;81.99;97118.00;30001;983;1876;-80
2021/08/18 00:31:24;;;;;;;;;;;;;;;13.18;81.33;97111.09;30001;983;1880;-81
2021/08/18 00:31:55;;;;;;;;;;;;;;;13.22;81.15;97114.84;30001;983;1858;-70
2021/08/18 00:32:26;;;;;;;;;;;;;;;13.22;81.01;97109.38;30001;983;1875;-68
2021/08/18 00:32:57;;;;;;;;;;;;;;;13.19;81.22;97112.72;30001;983;1876;-56
2021/08/18 00:33:29;;;;;;;;;;;;;;;13.17;81.45;97108.72;30001;983;1880;-67
2021/08/18 00:34:01;;;;;;;;;;;;;;;13.13;81.54;97113.13;30001;973;1895;-56
2021/08/18 00:34:32;;;;;;;;;;;;;;;13.12;81.59;97111.50;30001;983;1880;-68
2021/08/18 00:35:03;;;;;;;;;;;;;;;13.09;81.65;97110.19;30001;982;1876;-69
2021/08/18 00:35:34;;;;;;;;;;;;;;;13.09;81.98;97108.28;30001;982;1880;-68
2021/08/18 00:36:05;;;;;;;;;;;;;;;13.08;82.08;97117.56;30001;982;1775;-67
2021/08/18 00:36:36;;;;;;;;;;;;;;;13.08;82.20;97111.31;30001;982;1881;-56
2021/08/18 00:37:07;;;;;;;;;;;;;;;13.08;82.25;97111.31;30001;983;1858;-68
2021/08/18 00:37:38;;;;;;;;;;;;;;;13.07;82.12;97110.50;30001;983;1875;-68
2021/08/18 00:38:09;;;;;;;;;;;;;;;13.10;82.17;97114.53;30001;983;1876;-69
2021/08/18 00:38:39;;;;;;;;;;;;;;;13.11;81.92;97113.41;30001;983;1880;-68
2021/08/18 00:39:10;;;;;;;;;;;;;;;13.11;82.01;97118.88;30001;983;1876;-56
2021/08/18 00:39:41;;;;;;;;;;;;;;;13.11;82.20;97109.88;30001;983;1880;-56
2021/08/18 00:40:13;;;;;;;;;;;;;;;13.11;82.15;97109.88;30001;983;1876;-56
2021/08/18 00:40:44;;;;;;;;;;;;;;;13.10;82.25;97111.81;30001;983;1880;-67
2021/08/18 00:41:15;;;;;;;;;;;;;;;13.10;82.11;97109.09;30001;983;1876;-58
2021/08/18 00:41:46;;;;;;;;;;;;;;;13.09;82.37;97108.28;30001;983;1880;-67
2021/08/18 00:42:18;;;;;;;;;;;;;;;13.09;82.39;97113.72;30001;982;1858;-56
2021/08/18 00:42:49;;;;;;;;;;;;;;;13.09;82.42;97110.19;30001;982;1876;-54
2021/08/18 00:43:20;;;;;;;;;;;;;;;13.09;82.40;97107.47;30001;982;1876;-69
2021/08/18 00:43:51;;;;;;;;;;;;;;;13.09;82.55;97107.47;30001;982;1880;-68
2021/08/18 00:44:22;;;;;;;;;;;;;;;13.10;82.57;97109.09;30001;982;1876;-57
2021/08/18 00:44:56;;;;;;;;;;;;;;;13.09;82.61;97110.19;30001;983;1880;-52
2021/08/18 00:45:27;;;;;;;;;;;;;;;13.09;82.59;97115.66;30001;983;1792;-56
2021/08/18 00:45:58;;;;;;;;;;;;;;;13.07;82.54;97115.94;30001;983;1862;-57
2021/08/18 00:46:31;;;;;;;;;;;;;;;13.08;82.84;97116.75;30001;983;1871;-56
2021/08/18 00:47:03;;;;;;;;;;;;;;;13.09;83.33;97112.91;30001;983;1880;-67
2021/08/18 00:47:50;;;;;;;;;;;;;;;13.08;83.95;97111.31;30001;983;1858;-67
2021/08/18 00:48:21;;;;;;;;;;;;;;;13.08;83.11;97111.31;30001;983;1876;-68
2021/08/18 00:48:52;;;;;;;;;;;;;;;13.08;82.80;97111.31;30001;983;1876;-67
2021/08/18 00:49:25;;;;;;;;;;;;;;;13.08;82.85;97116.75;30001;983;1880;-68
2021/08/18 00:49:55;;;;;;;;;;;;;;;13.08;82.98;97108.59;30001;982;1876;-67
2021/08/18 00:50:27;;;;;;;;;;;;;;;13.08;84.23;97116.75;30001;982;1880;-69
2021/08/18 00:50:58;;;;;;;;;;;;;;;13.06;83.76;97113.53;30001;956;1902;-55
2021/08/18 00:51:29;;;;;;;;;;;;;;;13.06;83.43;97102.63;30001;982;1880;-66
2021/08/18 00:52:00;;;;;;;;;;;;;;;13.07;83.04;97106.97;30001;982;1876;-68
2021/08/18 00:52:31;;;;;;;;;;;;;;;13.06;82.87;97108.06;30001;983;1862;-68
2021/08/18 00:53:02;;;;;;;;;;;;;;;13.07;82.70;97109.69;30001;983;1871;-55
2021/08/18 00:53:34;;;;;;;;;;;;;;;13.06;82.78;97103.44;30001;983;1880;-67
2021/08/18 00:54:05;;;;;;;;;;;;;;;13.07;82.75;97105.06;30001;983;1876;-56
2021/08/18 00:54:36;;;;;;;;;;;;;;;13.08;82.72;97111.31;30001;983;1880;-68
2021/08/18 00:55:09;;;;;;;;;;;;;;;13.07;82.57;97099.59;30001;983;1876;-68
2021/08/18 00:55:41;;;;;;;;;;;;;;;13.06;82.48;97099.91;30001;983;1880;-57
2021/08/18 00:56:13;;;;;;;;;;;;;;;13.06;82.58;97099.91;30001;983;1876;-67
2021/08/18 00:56:47;;;;;;;;;;;;;;;13.05;82.81;97101.00;30001;983;1863;-68
2021/08/18 00:57:18;;;;;;;;;;;;;;;13.05;83.08;97098.28;30001;982;1872;-67
2021/08/18 00:57:50;;;;;;;;;;;;;;;13.06;82.89;97105.34;30001;982;1863;-66
2021/08/18 00:58:21;;;;;;;;;;;;;;;13.06;83.04;97102.63;30001;982;1872;-69
2021/08/18 00:58:51;;;;;;;;;;;;;;;13.07;83.81;97096.06;30001;982;1880;-68
2021/08/18 00:59:24;;;;;;;;;;;;;;;13.07;83.54;97104.25;30001;982;1876;-68
2021/08/18 00:59:55;;;;;;;;;;;;;;;13.07;83.66;97109.69;30001;983;1880;-67
2021/08/18 01:00:27;;;;;;;;;;;;;;;13.07;83.42;97106.97;30001;983;1875;-55
2021/08/18 01:00:58;;;;;;;;;;;;;;;13.07;83.48;97104.25;30001;983;1862;-67
2021/08/18 01:01:29;;;;;;;;;;;;;;;13.07;83.40;97096.87;30001;983;1871;-68
2021/08/18 01:02:02;;;;;;;;;;;;;;;13.08;83.23;97111.31;30001;983;1880;-69
2021/08/18 01:02:36;;;;;;;;;;;;;;;13.12;82.31;97101.41;30001;983;1876;-68
2021/08/18 01:03:08;;;;;;;;;;;;;;;13.16;81.68;97102.47;30001;983;1880;-67
2021/08/18 01:03:38;;;;;;;;;;;;;;;13.16;81.71;97102.47;30001;983;1876;-69
2021/08/18 01:04:10;;;;;;;;;;;;;;;13.17;81.90;97097.81;30001;982;1863;-68
2021/08/18 01:04:41;;;;;;;;;;;;;;;13.16;81.95;97101.66;30001;982;1872;-69
2021/08/18 01:05:22;;;;;;;;;;;;;;;13.14;81.89;97104.66;30001;982;1880;-68
2021/08/18 01:05:53;;;;;;;;;;;;;;;13.12;81.95;97098.69;30001;982;1876;-68
2021/08/18 01:06:24;;;;;;;;;;;;;;;13.11;81.88;97099.00;30001;982;1880;-67
2021/08/18 01:06:58;;;;;;;;;;;;;;;13.11;82.10;97094.34;30001;982;1876;-69
2021/08/18 01:07:30;;;;;;;;;;;;;;;13.12;82.22;97101.41;30001;983;1879;-67
2021/08/18 01:08:01;;;;;;;;;;;;;;;13.11;82.21;97104.44;30001;983;1875;-69
2021/08/18 01:08:34;;;;;;;;;;;;;;;13.09;82.17;97093.84;30001;983;1880;-67
2021/08/18 01:09:06;;;;;;;;;;;;;;;13.10;82.45;97103.63;30001;983;1858;-68
2021/08/18 01:09:37;;;;;;;;;;;;;;;13.09;83.13;97102.81;30001;983;1875;-68
2021/08/18 01:10:11;;;;;;;;;;;;;;;13.08;83.12;97094.97;30001;983;1876;-69
2021/08/18 01:10:41;;;;;;;;;;;;;;;13.07;82.91;97098.78;30001;983;1880;-68
2021/08/18 01:11:13;;;;;;;;;;;;;;;13.06;82.78;97097.19;30001;983;1875;-67
2021/08/18 01:11:46;;;;;;;;;;;;;;;13.05;82.94;97096.37;30001;982;1880;-67
2021/08/18 01:12:17;;;;;;;;;;;;;;;13.06;82.92;97097.19;30001;982;1876;-68
2021/08/18 01:12:48;;;;;;;;;;;;;;;13.05;82.98;97090.13;30001;982;1863;-57
2021/08/18 01:13:20;;;;;;;;;;;;;;;13.06;82.96;97097.19;30001;982;1872;-68
2021/08/18 01:13:51;;;;;;;;;;;;;;;13.06;83.04;97102.63;30001;982;1880;-68
2021/08/18 01:14:22;;;;;;;;;;;;;;;13.07;83.02;97098.78;30001;982;1876;-67
2021/08/18 01:14:53;;;;;;;;;;;;;;;13.06;83.05;97097.19;30001;983;1879;-69
2021/08/18 01:15:26;;;;;;;;;;;;;;;13.06;83.04;97097.19;30001;983;1875;-55
2021/08/18 01:15:58;;;;;;;;;;;;;;;13.08;82.83;97094.97;30001;983;1880;-68
2021/08/18 01:16:33;;;;;;;;;;;;;;;13.06;82.53;97097.19;30001;983;1875;-67
2021/08/18 01:17:04;;;;;;;;;;;;;;;13.06;82.49;97091.72;30002;983;1880;-67
2021/08/18 01:17:39;;;;;;;;;;;;;;;13.05;82.69;97098.28;30002;983;1858;-67
2021/08/18 01:18:11;;;;;;;;;;;;;;;13.06;82.82;97097.19;30002;983;1875;-67
2021/08/18 01:18:41;;;;;;;;;;;;;;;13.05;82.90;97101.00;30002;983;1876;-68
2021/08/18 01:19:13;;;;;;;;;;;;;;;13.06;82.82;97097.97;30002;982;1880;-69
2021/08/18 01:19:44;;;;;;;;;;;;;;;13.06;82.48;97099.91;30002;982;1876;-67
2021/08/18 01:20:17;;;;;;;;;;;;;;;13.06;82.36;97097.19;30002;982;1880;-67
2021/08/18 01:20:48;;;;;;;;;;;;;;;13.09;82.16;97102.03;30002;982;1876;-66
2021/08/18 01:21:19;;;;;;;;;;;;;;;13.11;82.05;97105.25;30002;982;1880;-68
2021/08/18 01:21:50;;;;;;;;;;;;;;;13.13;81.83;97103.03;30002;982;1876;-68
2021/08/18 01:22:21;;;;;;;;;;;;;;;13.13;81.68;97100.31;30002;982;1863;-68
2021/08/18 01:22:52;;;;;;;;;;;;;;;13.13;81.78;97103.03;30002;983;1871;-67
2021/08/18 01:23:23;;;;;;;;;;;;;;;13.13;81.69;97099.50;30002;983;1880;-70
2021/08/18 01:23:54;;;;;;;;;;;;;;;13.17;81.29;97104.03;30002;983;1875;-68
2021/08/18 01:24:26;;;;;;;;;;;;;;;13.21;80.94;97099.59;30002;983;1880;-67
2021/08/18 01:24:57;;;;;;;;;;;;;;;13.21;81.04;97094.16;30002;983;1858;-67
2021/08/18 01:25:28;;;;;;;;;;;;;;;13.20;81.05;97103.44;30002;983;1875;-68
2021/08/18 01:25:59;;;;;;;;;;;;;;;13.19;81.12;97096.37;30002;983;1876;-67
2021/08/18 01:26:30;;;;;;;;;;;;;;;13.23;80.97;97102.81;30002;983;1880;-66
2021/08/18 01:27:01;;;;;;;;;;;;;;;13.23;81.54;97100.09;30002;982;1876;-67
2021/08/18 01:27:32;;;;;;;;;;;;;;;13.19;81.75;97099.09;30002;982;1880;-69
2021/08/18 01:28:04;;;;;;;;;;;;;;;13.17;81.70;97103.25;30002;982;1876;-66
2021/08/18 01:28:35;;;;;;;;;;;;;;;13.15;81.49;97092.62;30002;982;1880;-68
2021/08/18 01:29:06;;;;;;;;;;;;;;;13.19;81.02;97098.28;30002;982;1876;-67
2021/08/18 01:29:37;;;;;;;;;;;;;;;13.21;80.55;97093.34;30002;982;1881;-67
2021/08/18 01:30:10;;;;;;;;;;;;;;;13.23;80.34;97096.56;30002;983;1858;-67
2021/08/18 01:30:41;;;;;;;;;;;;;;;13.26;80.26;97096.78;30002;983;1875;-70
2021/08/18 01:31:12;;;;;;;;;;;;;;;13.26;80.44;97098.69;30002;983;1875;-69
2021/08/18 01:31:43;;;;;;;;;;;;;;;13.23;80.26;97094.66;30002;983;1880;-69
2021/08/18 01:32:15;;;;;;;;;;;;;;;13.21;81.29;97099.59;30002;983;1876;-69
2021/08/18 01:32:49;;;;;;;;;;;;;;;13.20;81.00;97097.19;30002;983;1862;-67
2021/08/18 01:33:19;;;;;;;;;;;;;;;13.17;81.18;97093.16;30002;983;1871;-69
2021/08/18 01:33:51;;;;;;;;;;;;;;;13.18;80.98;97097.47;30002;983;1880;-68
2021/08/18 01:34:21;;;;;;;;;;;;;;;13.17;80.90;97104.03;30002;982;1876;-70
2021/08/18 01:34:52;;;;;;;;;;;;;;;13.16;81.00;97094.28;30002;982;1880;-67
2021/08/18 01:35:25;;;;;;;;;;;;;;;13.16;80.94;97101.66;30002;982;1876;-68
2021/08/18 01:35:56;;;;;;;;;;;;;;;13.14;81.42;97099.19;30002;982;1881;-67
2021/08/18 01:36:27;;;;;;;;;;;;;;;13.14;81.26;97104.66;30002;982;1876;-69
2021/08/18 01:36:57;;;;;;;;;;;;;;;13.14;81.26;97101.12;30002;983;1862;-63
2021/08/18 01:37:29;;;;;;;;;;;;;;;13.14;81.29;97106.56;30002;983;1871;-68
2021/08/18 01:38:00;;;;;;;;;;;;;;;13.15;80.86;97095.38;30002;983;1880;-66
2021/08/18 01:38:31;;;;;;;;;;;;;;;13.19;80.76;97101.81;30002;983;1876;-55
2021/08/18 01:39:04;;;;;;;;;;;;;;;13.20;80.24;97103.44;30002;983;1880;-68
2021/08/18 01:39:34;;;;;;;;;;;;;;;13.23;80.11;97100.09;30002;983;1876;-68
2021/08/18 01:40:06;;;;;;;;;;;;;;;13.24;80.36;97104.44;30002;983;1880;-67
2021/08/18 01:40:37;;;;;;;;;;;;;;;13.23;80.31;97102.81;30002;983;1876;-67
2021/08/18 01:41:08;;;;;;;;;;;;;;;13.21;80.52;97105.06;30002;983;1880;-67
2021/08/18 01:41:39;;;;;;;;;;;;;;;13.20;80.58;97097.97;30002;983;1858;-67
2021/08/18 01:42:13;;;;;;;;;;;;;;;13.19;80.55;97101.81;30002;971;1894;-69
2021/08/18 01:42:45;;;;;;;;;;;;;;;13.20;80.81;97097.19;30002;982;1876;-67
2021/08/18 01:43:16;;;;;;;;;;;;;;;13.22;80.63;97105.84;30002;982;1880;-67
2021/08/18 01:43:46;;;;;;;;;;;;;;;13.22;80.61;97100.41;30002;982;1876;-67
2021/08/18 01:44:17;;;;;;;;;;;;;;;13.22;80.45;97100.41;30002;983;1880;-68
2021/08/18 01:44:48;;;;;;;;;;;;;;;13.21;81.22;97099.59;30002;983;1875;-67
2021/08/18 01:45:38;;;;;;;;;;;;;;;13.19;81.05;97101.81;30002;983;1880;-67
2021/08/18 01:46:10;;;;;;;;;;;;;;;13.16;80.81;97090.75;30002;983;1858;-68
2021/08/18 01:46:41;;;;;;;;;;;;;;;13.17;80.77;97101.31;30002;983;1875;-68
2021/08/18 01:47:13;;;;;;;;;;;;;;;13.19;80.59;97101.00;30002;983;1876;-66
2021/08/18 01:47:43;;;;;;;;;;;;;;;13.19;80.47;97101.81;30002;983;1880;-67
2021/08/18 01:48:16;;;;;;;;;;;;;;;13.21;80.43;97099.59;30002;983;1858;-68
2021/08/18 01:48:47;;;;;;;;;;;;;;;13.20;81.31;97094.44;30002;983;1876;-68
2021/08/18 01:49:19;;;;;;;;;;;;;;;13.20;81.06;97103.44;30002;982;1876;-69
2021/08/18 01:49:50;;;;;;;;;;;;;;;13.18;80.87;97096.69;30002;982;1881;-66
2021/08/18 01:50:21;;;;;;;;;;;;;;;13.23;80.43;97097.37;30002;982;1876;-68
2021/08/18 01:50:53;;;;;;;;;;;;;;;13.23;80.14;97097.37;30002;982;1881;-69
2021/08/18 01:51:24;;;;;;;;;;;;;;;13.23;80.14;97097.37;30002;982;1859;-68
2021/08/18 01:51:56;;;;;;;;;;;;;;;13.25;80.32;97103.34;30002;983;1875;-69
2021/08/18 01:52:27;;;;;;;;;;;;;;;13.25;80.14;97095.16;30002;986;1867;-67
2021/08/18 01:52:57;;;;;;;;;;;;;;;13.25;80.47;97097.87;30002;983;1862;-69
2021/08/18 01:53:30;;;;;;;;;;;;;;;13.22;80.94;97101.22;30002;983;1871;-68
2021/08/18 01:54:01;;;;;;;;;;;;;;;13.21;80.83;97101.50;30002;983;1880;-69
2021/08/18 01:54:32;;;;;;;;;;;;;;;13.18;80.76;97104.84;30002;983;1875;-68
2021/08/18 01:55:04;;;;;;;;;;;;;;;13.17;81.10;97098.59;30002;983;1880;-69
2021/08/18 01:55:35;;;;;;;;;;;;;;;13.17;81.40;97108.72;30002;983;1876;-64
2021/08/18 01:56:07;;;;;;;;;;;;;;;13.16;81.29;97099.72;30002;985;1863;-67
2021/08/18 01:56:38;;;;;;;;;;;;;;;13.17;80.80;97093.16;30002;982;1871;-67
2021/08/18 01:57:09;;;;;;;;;;;;;;;13.17;80.63;97098.59;30002;982;1880;-66
2021/08/18 01:57:41;;;;;;;;;;;;;;;13.19;80.68;97096.37;30002;982;1876;-66
2021/08/18 01:58:12;;;;;;;;;;;;;;;13.20;80.49;97097.97;30002;982;1880;-70
2021/08/18 01:58:44;;;;;;;;;;;;;;;13.22;80.35;97101.22;30002;982;1876;-70
2021/08/18 01:59:15;;;;;;;;;;;;;;;13.24;80.31;97093.53;30002;982;1863;-68
2021/08/18 01:59:45;;;;;;;;;;;;;;;13.23;79.96;97105.56;30002;983;1871;-69
2021/08/18 02:00:17;;;;;;;;;;;;;;;13.24;80.11;97099.00;30002;983;1880;-68
2021/08/18 02:00:49;;;;;;;;;;;;;;;13.24;80.54;97099.00;30002;983;1875;-68
2021/08/18 02:01:20;;;;;;;;;;;;;;;13.23;80.62;97096.56;30002;983;1880;-68
2021/08/18 02:01:51;;;;;;;;;;;;;;;13.21;80.89;97094.16;30002;983;1876;-68
2021/08/18 02:02:26;;;;;;;;;;;;;;;13.21;80.69;97096.87;30002;983;1880;-69
2021/08/18 02:02:57;;;;;;;;;;;;;;;13.18;80.57;97099.41;30002;983;1876;-67
2021/08/18 02:03:28;;;;;;;;;;;;;;;13.15;80.63;97100.81;30002;983;1880;-65
2021/08/18 02:03:59;;;;;;;;;;;;;;;13.18;80.73;97100.22;30002;982;1876;-67
2021/08/18 02:04:29;;;;;;;;;;;;;;;13.17;80.51;97098.59;30002;982;1863;-68
2021/08/18 02:05:00;;;;;;;;;;;;;;;13.18;80.60;97099.41;30002;982;1871;-67
2021/08/18 02:05:31;;;;;;;;;;;;;;;13.17;80.65;97101.31;30002;982;1880;-66
2021/08/18 02:06:02;;;;;;;;;;;;;;;13.17;80.62;97098.59;30002;982;1859;-67
2021/08/18 02:06:33;;;;;;;;;;;;;;;13.17;80.63;97101.31;30002;982;1876;-69
2021/08/18 02:07:04;;;;;;;;;;;;;;;13.17;80.59;97095.88;30002;983;1875;-68
2021/08/18 02:07:35;;;;;;;;;;;;;;;13.17;80.79;97097.81;30002;983;1879;-69
2021/08/18 02:08:06;;;;;;;;;;;;;;;13.16;80.80;97097.00;30001;983;1876;-68
2021/08/18 02:08:37;;;;;;;;;;;;;;;13.16;80.93;97102.47;30001;983;1880;-67
2021/08/18 02:09:08;;;;;;;;;;;;;;;13.16;81.11;97097.00;30001;983;1876;-68
2021/08/18 02:09:39;;;;;;;;;;;;;;;13.18;81.25;97096.69;30001;983;1880;-68
2021/08/18 02:10:12;;;;;;;;;;;;;;;13.18;81.01;97104.84;30001;983;1876;-68
2021/08/18 02:10:43;;;;;;;;;;;;;;;13.20;80.61;97102.63;30001;983;1881;-68
2021/08/18 02:11:14;;;;;;;;;;;;;;;13.19;80.55;97093.66;30001;965;1833;-68
2021/08/18 02:11:45;;;;;;;;;;;;;;;13.21;80.56;97102.31;30001;982;1876;-67
2021/08/18 02:12:16;;;;;;;;;;;;;;;13.20;80.65;97103.44;30001;982;1876;-68
2021/08/18 02:12:47;;;;;;;;;;;;;;;13.19;80.81;97093.66;30001;982;1880;-68
2021/08/18 02:13:18;;;;;;;;;;;;;;;13.17;81.08;97095.88;30001;982;1876;-67
2021/08/18 02:13:49;;;;;;;;;;;;;;;13.18;81.02;97094.75;30001;982;1881;-68
2021/08/18 02:14:20;;;;;;;;;;;;;;;13.19;80.88;97096.37;30001;982;1876;-67
2021/08/18 02:14:51;;;;;;;;;;;;;;;13.23;80.18;97094.66;30001;983;1880;-68
2021/08/18 02:15:24;;;;;;;;;;;;;;;13.24;80.13;97099.00;30001;983;1875;-67
2021/08/18 02:15:54;;;;;;;;;;;;;;;13.24;80.16;97104.44;30001;983;1880;-68
2021/08/18 02:16:25;;;;;;;;;;;;;;;13.25;80.17;97100.59;30001;983;1858;-69
2021/08/18 02:16:56;;;;;;;;;;;;;;;13.24;80.17;97099.00;30001;983;1876;-68
2021/08/18 02:17:27;;;;;;;;;;;;;;;13.22;80.05;97094.97;30001;983;1876;-67
2021/08/18 02:17:58;;;;;;;;;;;;;;;13.23;80.21;97093.84;30001;983;1880;-67
2021/08/18 02:18:29;;;;;;;;;;;;;;;13.21;80.56;97094.16;30001;983;1876;-68
2021/08/18 02:19:00;;;;;;;;;;;;;;;13.20;80.79;97091.72;30001;982;1880;-68
2021/08/18 02:19:31;;;;;;;;;;;;;;;13.21;80.52;97099.59;30001;982;1876;-71
2021/08/18 02:20:04;;;;;;;;;;;;;;;13.25;79.92;97095.16;30001;982;1881;-66
2021/08/18 02:20:37;;;;;;;;;;;;;;;13.29;79.65;97088.00;30001;982;1876;-68
2021/08/18 02:21:08;;;;;;;;;;;;;;;13.27;79.87;97100.31;30001;983;1879;-67
2021/08/18 02:21:39;;;;;;;;;;;;;;;13.24;79.99;97093.53;30001;983;1858;-67
2021/08/18 02:22:11;;;;;;;;;;;;;;;13.23;80.12;97096.56;30001;986;1875;-68
2021/08/18 02:22:42;;;;;;;;;;;;;;;13.23;79.85;97097.37;30001;983;1858;-68
2021/08/18 02:23:16;;;;;;;;;;;;;;;13.23;79.85;97096.56;30001;983;1876;-68
2021/08/18 02:23:47;;;;;;;;;;;;;;;13.22;80.09;97098.50;30001;983;1876;-68
2021/08/18 02:24:18;;;;;;;;;;;;;;;13.19;80.30;97096.37;30001;983;1880;-68
2021/08/18 02:24:49;;;;;;;;;;;;;;;13.19;80.27;97090.91;30001;970;1897;-68
2021/08/18 02:25:20;;;;;;;;;;;;;;;13.20;79.99;97097.97;30001;983;1880;-68
2021/08/18 02:25:52;;;;;;;;;;;;;;;13.19;79.87;97090.13;30001;983;1876;-69
2021/08/18 02:26:22;;;;;;;;;;;;;;;13.18;80.23;97094.75;30001;982;1881;-68
2021/08/18 02:26:53;;;;;;;;;;;;;;;13.20;80.05;97097.97;30001;982;1876;-71
2021/08/18 02:27:24;;;;;;;;;;;;;;;13.21;79.93;97096.87;30001;982;1880;-67
2021/08/18 02:27:56;;;;;;;;;;;;;;;13.21;79.92;97087.91;30001;982;1859;-57
2021/08/18 02:28:27;;;;;;;;;;;;;;;13.17;80.19;97087.69;30001;982;1876;-68
2021/08/18 02:29:01;;;;;;;;;;;;;;;13.17;80.62;97093.16;30001;983;1875;-68
2021/08/18 02:29:31;;;;;;;;;;;;;;;13.15;81.55;97095.38;30001;983;1880;-67
2021/08/18 02:30:03;;;;;;;;;;;;;;;13.14;81.99;97092.94;30001;983;1875;-68
2021/08/18 02:30:35;;;;;;;;;;;;;;;13.12;81.54;97087.78;30001;983;1862;-68
2021/08/18 02:31:06;;;;;;;;;;;;;;;13.11;81.45;97088.91;30001;983;1871;-66
2021/08/18 02:31:37;;;;;;;;;;;;;;;13.13;81.61;97092.13;30001;983;1880;-67
2021/08/18 02:32:08;;;;;;;;;;;;;;;13.12;81.80;97090.53;30001;983;1876;-67
2021/08/18 02:32:39;;;;;;;;;;;;;;;13.12;82.05;97090.53;30001;983;1880;-67
2021/08/18 02:33:10;;;;;;;;;;;;;;;13.10;82.14;97087.28;30001;983;1858;-66
2021/08/18 02:33:41;;;;;;;;;;;;;;;13.11;81.78;97088.91;30001;983;1876;-66
2021/08/18 02:34:12;;;;;;;;;;;;;;;13.12;81.61;97095.16;30001;982;1876;-67
2021/08/18 02:34:43;;;;;;;;;;;;;;;13.11;81.48;97094.34;30001;982;1880;-67
2021/08/18 02:35:15;;;;;;;;;;;;;;;13.12;81.37;97095.97;30001;982;1876;-67
2021/08/18 02:35:46;;;;;;;;;;;;;;;13.13;81.33;97091.31;30001;982;1881;-67
2021/08/18 02:36:17;;;;;;;;;;;;;;;13.13;81.23;97091.31;30001;983;1875;-67
2021/08/18 02:36:48;;;;;;;;;;;;;;;13.13;81.45;97097.59;30001;983;1880;-68
2021/08/18 02:37:19;;;;;;;;;;;;;;;13.12;81.49;97090.53;30001;983;1875;-67
2021/08/18 02:37:51;;;;;;;;;;;;;;;13.13;81.59;97092.13;30001;983;1880;-66
2021/08/18 02:38:22;;;;;;;;;;;;;;;13.12;81.58;97101.41;30001;983;1858;-66
2021/08/18 02:38:52;;;;;;;;;;;;;;;13.13;81.60;97092.13;30001;983;1875;-69
2021/08/18 02:39:23;;;;;;;;;;;;;;;13.13;82.12;97100.31;30001;983;1876;-68
2021/08/18 02:39:54;;;;;;;;;;;;;;;13.12;82.17;97095.97;30001;983;1880;-66
2021/08/18 02:40:25;;;;;;;;;;;;;;;13.11;82.29;97088.91;30001;963;1896;-67
2021/08/18 02:40:56;;;;;;;;;;;;;;;13.14;81.59;97093.75;30001;983;1863;-70
2021/08/18 02:41:27;;;;;;;;;;;;;;;13.15;81.00;97098.09;30001;982;1871;-67
2021/08/18 02:41:58;;;;;;;;;;;;;;;13.17;80.93;97095.09;30001;982;1880;-67
2021/08/18 02:42:29;;;;;;;;;;;;;;;13.16;80.70;97094.28;30001;982;1876;-68
2021/08/18 02:43:00;;;;;;;;;;;;;;;13.16;80.61;97088.84;30001;986;1880;-68
2021/08/18 02:43:31;;;;;;;;;;;;;;;13.18;80.79;97093.94;30001;982;1876;-68
2021/08/18 02:44:03;;;;;;;;;;;;;;;13.18;80.81;97099.41;30001;983;1880;-68
2021/08/18 02:44:34;;;;;;;;;;;;;;;13.18;80.82;97099.41;30001;983;1875;-69
2021/08/18 02:45:06;;;;;;;;;;;;;;;13.16;81.12;97097.00;30001;983;1880;-68
2021/08/18 02:45:37;;;;;;;;;;;;;;;13.15;81.34;97095.38;30001;983;1858;-68
2021/08/18 02:46:08;;;;;;;;;;;;;;;13.14;81.48;97093.75;30001;983;1875;-67
2021/08/18 02:46:39;;;;;;;;;;;;;;;13.14;81.54;97099.19;30001;983;1876;-68
2021/08/18 02:47:10;;;;;;;;;;;;;;;13.15;81.97;97089.09;30001;983;1880;-68
2021/08/18 02:47:42;;;;;;;;;;;;;;;13.16;81.77;97091.56;30001;983;1876;-68
2021/08/18 02:48:13;;;;;;;;;;;;;;;13.16;81.97;97102.47;30001;982;1881;-68
2021/08/18 02:48:44;;;;;;;;;;;;;;;13.16;82.02;97105.19;30001;982;1876;-67